Aviation Digital Data Service (ADDS)

Output produced by METARs form (0822 UTC 19 April 2019)
found at http://www.aviationweather.gov/metar/data/
 
METAR text: KDVT 190753Z AUTO 00000KT 10SM CLR 19/03 A3000 RMK AO2 SLP138 T01940033
Conditions at: KDVT (PHOENIX/DEER VLY, AZ, US) observed 0753 UTC 19 April 2019
Temperature: 19.4°C (67°F)
Dewpoint: 3.3°C (38°F) [RH = 34%]
Pressure (altimeter): 30.00 inches Hg (1016.0 mb)
[Sea-level pressure: 1013.8 mb]
Winds: calm
Visibility: 10 or more miles (16+ km)
Ceiling: at least 12,000 feet AGL
Clouds: sky clear below 12,000 feet AGL
Weather: automated observation with no human augmentation;
there may or may not be significant weather present at this time

METAR text: KDVT 190653Z 03003KT 10SM CLR 20/04 A3000 RMK AO2 SLP139 T02000039 403220139
Conditions at: KDVT (PHOENIX/DEER VLY, AZ, US) observed 0653 UTC 19 April 2019
Temperature: 20.0°C (68°F)
Dewpoint: 3.9°C (39°F) [RH = 35%]
Pressure (altimeter): 30.00 inches Hg (1016.0 mb)
[Sea-level pressure: 1013.9 mb]
Winds: from the NNE (30 degrees) at 3 MPH (3 knots; 1.5 m/s)
Visibility: 10 or more miles (16+ km)
Ceiling: at least 12,000 feet AGL
Clouds: sky clear below 12,000 feet AGL
Weather: no significant weather observed at this time

METAR text: KDVT 190553Z AUTO 00000KT 10SM CLR 22/04 A3001 RMK AO2 SLP141 T02170039 10317 20206 51010
Conditions at: KDVT (PHOENIX/DEER VLY, AZ, US) observed 0553 UTC 19 April 2019
Temperature: 21.7°C (71°F)
Dewpoint: 3.9°C (39°F) [RH = 31%]
Pressure (altimeter): 30.01 inches Hg (1016.3 mb)
[Sea-level pressure: 1014.1 mb]
Winds: calm
Visibility: 10 or more miles (16+ km)
Ceiling: at least 12,000 feet AGL
Clouds: sky clear below 12,000 feet AGL
Weather: automated observation with no human augmentation;
there may or may not be significant weather present at this time

METAR text: KDVT 190453Z AUTO 10003KT 10SM CLR 22/03 A3000 RMK AO2 SLP141 T02170033
Conditions at: KDVT (PHOENIX/DEER VLY, AZ, US) observed 0453 UTC 19 April 2019
Temperature: 21.7°C (71°F)
Dewpoint: 3.3°C (38°F) [RH = 30%]
Pressure (altimeter): 30.00 inches Hg (1016.0 mb)
[Sea-level pressure: 1014.1 mb]
Winds: from the E (100 degrees) at 3 MPH (3 knots; 1.5 m/s)
Visibility: 10 or more miles (16+ km)
Ceiling: at least 12,000 feet AGL
Clouds: sky clear below 12,000 feet AGL
Weather: automated observation with no human augmentation;
there may or may not be significant weather present at this time

METAR text: KDVT 190353Z 00000KT 10SM CLR 26/03 A3000 RMK AO2 SLP138 T02560028
Conditions at: KDVT (PHOENIX/DEER VLY, AZ, US) observed 0353 UTC 19 April 2019
Temperature: 25.6°C (78°F)
Dewpoint: 2.8°C (37°F) [RH = 23%]
Pressure (altimeter): 30.00 inches Hg (1016.0 mb)
[Sea-level pressure: 1013.8 mb]
Winds: calm
Visibility: 10 or more miles (16+ km)
Ceiling: at least 12,000 feet AGL
Clouds: sky clear below 12,000 feet AGL
Weather: no significant weather observed at this time

METAR text: KDVT 190253Z 25003KT 10SM CLR 28/02 A2998 RMK AO2 SLP130 T02780022 55000
Conditions at: KDVT (PHOENIX/DEER VLY, AZ, US) observed 0253 UTC 19 April 2019
Temperature: 27.8°C (82°F)
Dewpoint: 2.2°C (36°F) [RH = 19%]
Pressure (altimeter): 29.98 inches Hg (1015.3 mb)
[Sea-level pressure: 1013.0 mb]
Winds: from the WSW (250 degrees) at 3 MPH (3 knots; 1.5 m/s)
Visibility: 10 or more miles (16+ km)
Ceiling: at least 12,000 feet AGL
Clouds: sky clear below 12,000 feet AGL
Weather: no significant weather observed at this time

METAR text: KDVT 190153Z 22006KT 10SM CLR 29/02 A2996 RMK AO2 SLP127 T02940022
Conditions at: KDVT (PHOENIX/DEER VLY, AZ, US) observed 0153 UTC 19 April 2019
Temperature: 29.4°C (85°F)
Dewpoint: 2.2°C (36°F) [RH = 17%]
Pressure (altimeter): 29.96 inches Hg (1014.6 mb)
[Sea-level pressure: 1012.7 mb]
Winds: from the SW (220 degrees) at 7 MPH (6 knots; 3.1 m/s)
Visibility: 10 or more miles (16+ km)
Ceiling: at least 12,000 feet AGL
Clouds: sky clear below 12,000 feet AGL
Weather: no significant weather observed at this time

METAR text: KDVT 190053Z 24008KT 10SM CLR 31/02 A2997 RMK AO2 SLP128 T03060022
Conditions at: KDVT (PHOENIX/DEER VLY, AZ, US) observed 0053 UTC 19 April 2019
Temperature: 30.6°C (87°F)
Dewpoint: 2.2°C (36°F) [RH = 16%]
Pressure (altimeter): 29.97 inches Hg (1015.0 mb)
[Sea-level pressure: 1012.8 mb]
Winds: from the WSW (240 degrees) at 9 MPH (8 knots; 4.1 m/s)
Visibility: 10 or more miles (16+ km)
Ceiling: at least 12,000 feet AGL
Clouds: sky clear below 12,000 feet AGL
Weather: no significant weather observed at this time

METAR text: KDVT 182353Z 25010KT 10SM CLR 32/03 A2998 RMK AO2 SLP131 T03170028 10322 20256 56026
Conditions at: KDVT (PHOENIX/DEER VLY, AZ, US) observed 2353 UTC 18 April 2019
Temperature: 31.7°C (89°F)
Dewpoint: 2.8°C (37°F) [RH = 16%]
Pressure (altimeter): 29.98 inches Hg (1015.3 mb)
[Sea-level pressure: 1013.1 mb]
Winds: from the WSW (250 degrees) at 12 MPH (10 knots; 5.1 m/s)
Visibility: 10 or more miles (16+ km)
Ceiling: at least 12,000 feet AGL
Clouds: sky clear below 12,000 feet AGL
Weather: no significant weather observed at this time

METAR text: KDVT 182253Z 00000KT 10SM CLR 31/03 A2999 RMK AO2 SLP135 T03060028
Conditions at: KDVT (PHOENIX/DEER VLY, AZ, US) observed 2253 UTC 18 April 2019
Temperature: 30.6°C (87°F)
Dewpoint: 2.8°C (37°F) [RH = 17%]
Pressure (altimeter): 29.99 inches Hg (1015.7 mb)
[Sea-level pressure: 1013.5 mb]
Winds: calm
Visibility: 10 or more miles (16+ km)
Ceiling: at least 12,000 feet AGL
Clouds: sky clear below 12,000 feet AGL
Weather: no significant weather observed at this time

METAR text: KDVT 182153Z 01006KT 10SM CLR 31/04 A3002 RMK AO2 SLP145 T03110039
Conditions at: KDVT (PHOENIX/DEER VLY, AZ, US) observed 2153 UTC 18 April 2019
Temperature: 31.1°C (88°F)
Dewpoint: 3.9°C (39°F) [RH = 18%]
Pressure (altimeter): 30.02 inches Hg (1016.7 mb)
[Sea-level pressure: 1014.5 mb]
Winds: from the N (10 degrees) at 7 MPH (6 knots; 3.1 m/s)
Visibility: 10 or more miles (16+ km)
Ceiling: at least 12,000 feet AGL
Clouds: sky clear below 12,000 feet AGL
Weather: no significant weather observed at this time

METAR text: KDVT 182053Z VRB06KT 10SM CLR 29/04 A3006 RMK AO2 SLP159 T02940039 58020
Conditions at: KDVT (PHOENIX/DEER VLY, AZ, US) observed 2053 UTC 18 April 2019
Temperature: 29.4°C (85°F)
Dewpoint: 3.9°C (39°F) [RH = 20%]
Pressure (altimeter): 30.06 inches Hg (1018.0 mb)
[Sea-level pressure: 1015.9 mb]
Winds: variable direction winds at 7 MPH (6 knots; 3.1 m/s)
Visibility: 10 or more miles (16+ km)
Ceiling: at least 12,000 feet AGL
Clouds: sky clear below 12,000 feet AGL
Weather: no significant weather observed at this time

METAR text: KDVT 181953Z VRB03KT 10SM CLR 28/04 A3009 RMK AO2 SLP169 T02830044
Conditions at: KDVT (PHOENIX/DEER VLY, AZ, US) observed 1953 UTC 18 April 2019
Temperature: 28.3°C (83°F)
Dewpoint: 4.4°C (40°F) [RH = 22%]
Pressure (altimeter): 30.09 inches Hg (1019.0 mb)
[Sea-level pressure: 1016.9 mb]
Winds: variable direction winds at 3 MPH (3 knots; 1.5 m/s)
Visibility: 10 or more miles (16+ km)
Ceiling: at least 12,000 feet AGL
Clouds: sky clear below 12,000 feet AGL
Weather: no significant weather observed at this time

METAR text: KDVT 181853Z VRB04KT 10SM CLR 27/06 A3011 RMK AO2 SLP176 T02720056
Conditions at: KDVT (PHOENIX/DEER VLY, AZ, US) observed 1853 UTC 18 April 2019
Temperature: 27.2°C (81°F)
Dewpoint: 5.6°C (42°F) [RH = 25%]
Pressure (altimeter): 30.11 inches Hg (1019.7 mb)
[Sea-level pressure: 1017.6 mb]
Winds: variable direction winds at 5 MPH (4 knots; 2.1 m/s)
Visibility: 10 or more miles (16+ km)
Ceiling: at least 12,000 feet AGL
Clouds: sky clear below 12,000 feet AGL
Weather: no significant weather observed at this time

METAR text: KDVT 181753Z AUTO 19003KT 10SM CLR 26/06 A3012 RMK AO2 SLP180 T02610061 10261 20139 56004
Conditions at: KDVT (PHOENIX/DEER VLY, AZ, US) observed 1753 UTC 18 April 2019
Temperature: 26.1°C (79°F)
Dewpoint: 6.1°C (43°F) [RH = 28%]
Pressure (altimeter): 30.12 inches Hg (1020.1 mb)
[Sea-level pressure: 1018.0 mb]
Winds: from the S (190 degrees) at 3 MPH (3 knots; 1.5 m/s)
Visibility: 10 or more miles (16+ km)
Ceiling: at least 12,000 feet AGL
Clouds: sky clear below 12,000 feet AGL
Weather: automated observation with no human augmentation;
there may or may not be significant weather present at this time

METAR text: KDVT 181653Z AUTO 00000KT 10SM CLR 24/06 A3012 RMK AO2 SLP181 T02390056
Conditions at: KDVT (PHOENIX/DEER VLY, AZ, US) observed 1653 UTC 18 April 2019
Temperature: 23.9°C (75°F)
Dewpoint: 5.6°C (42°F) [RH = 31%]
Pressure (altimeter): 30.12 inches Hg (1020.1 mb)
[Sea-level pressure: 1018.1 mb]
Winds: calm
Visibility: 10 or more miles (16+ km)
Ceiling: at least 12,000 feet AGL
Clouds: sky clear below 12,000 feet AGL
Weather: automated observation with no human augmentation;
there may or may not be significant weather present at this time

METAR text: KDVT 181553Z AUTO 22003KT 10SM CLR 22/07 A3013 RMK AO2 SLP184 T02220067
Conditions at: KDVT (PHOENIX/DEER VLY, AZ, US) observed 1553 UTC 18 April 2019
Temperature: 22.2°C (72°F)
Dewpoint: 6.7°C (44°F) [RH = 37%]
Pressure (altimeter): 30.13 inches Hg (1020.4 mb)
[Sea-level pressure: 1018.4 mb]
Winds: from the SW (220 degrees) at 3 MPH (3 knots; 1.5 m/s)
Visibility: 10 or more miles (16+ km)
Ceiling: at least 12,000 feet AGL
Clouds: sky clear below 12,000 feet AGL
Weather: automated observation with no human augmentation;
there may or may not be significant weather present at this time

METAR text: KDVT 181453Z AUTO 00000KT 10SM CLR 19/07 A3013 RMK AO2 SLP187 T01940067 53025
Conditions at: KDVT (PHOENIX/DEER VLY, AZ, US) observed 1453 UTC 18 April 2019
Temperature: 19.4°C (67°F)
Dewpoint: 6.7°C (44°F) [RH = 44%]
Pressure (altimeter): 30.13 inches Hg (1020.4 mb)
[Sea-level pressure: 1018.7 mb]
Winds: calm
Visibility: 10 or more miles (16+ km)
Ceiling: at least 12,000 feet AGL
Clouds: sky clear below 12,000 feet AGL
Weather: automated observation with no human augmentation;
there may or may not be significant weather present at this time

METAR text: KDVT 181353Z AUTO 07005KT 10SM CLR 17/07 A3010 RMK AO2 SLP177 T01670067
Conditions at: KDVT (PHOENIX/DEER VLY, AZ, US) observed 1353 UTC 18 April 2019
Temperature: 16.7°C (62°F)
Dewpoint: 6.7°C (44°F) [RH = 52%]
Pressure (altimeter): 30.10 inches Hg (1019.4 mb)
[Sea-level pressure: 1017.7 mb]
Winds: from the ENE (70 degrees) at 6 MPH (5 knots; 2.6 m/s)
Visibility: 10 or more miles (16+ km)
Ceiling: at least 12,000 feet AGL
Clouds: sky clear below 12,000 feet AGL
Weather: automated observation with no human augmentation;
there may or may not be significant weather present at this time

METAR text: KDVT 181253Z AUTO VRB03KT 10SM CLR 14/07 A3008 RMK AO2 SLP171 T01440067
Conditions at: KDVT (PHOENIX/DEER VLY, AZ, US) observed 1253 UTC 18 April 2019
Temperature: 14.4°C (58°F)
Dewpoint: 6.7°C (44°F) [RH = 60%]
Pressure (altimeter): 30.08 inches Hg (1018.7 mb)
[Sea-level pressure: 1017.1 mb]
Winds: variable direction winds at 3 MPH (3 knots; 1.5 m/s)
Visibility: 10 or more miles (16+ km)
Ceiling: at least 12,000 feet AGL
Clouds: sky clear below 12,000 feet AGL
Weather: automated observation with no human augmentation;
there may or may not be significant weather present at this time

METAR text: KDVT 181153Z AUTO 03004KT 10SM CLR 15/07 A3005 RMK AO2 SLP162 T01500072 10194 20144 53002
Conditions at: KDVT (PHOENIX/DEER VLY, AZ, US) observed 1153 UTC 18 April 2019
Temperature: 15.0°C (59°F)
Dewpoint: 7.2°C (45°F) [RH = 60%]
Pressure (altimeter): 30.05 inches Hg (1017.7 mb)
[Sea-level pressure: 1016.2 mb]
Winds: from the NNE (30 degrees) at 5 MPH (4 knots; 2.1 m/s)
Visibility: 10 or more miles (16+ km)
Ceiling: at least 12,000 feet AGL
Clouds: sky clear below 12,000 feet AGL
Weather: automated observation with no human augmentation;
there may or may not be significant weather present at this time

METAR text: KDVT 181053Z AUTO 03008KT 10SM CLR 15/07 A3004 RMK AO2 SLP157 T01500072
Conditions at: KDVT (PHOENIX/DEER VLY, AZ, US) observed 1053 UTC 18 April 2019
Temperature: 15.0°C (59°F)
Dewpoint: 7.2°C (45°F) [RH = 60%]
Pressure (altimeter): 30.04 inches Hg (1017.4 mb)
[Sea-level pressure: 1015.7 mb]
Winds: from the NNE (30 degrees) at 9 MPH (8 knots; 4.1 m/s)
Visibility: 10 or more miles (16+ km)
Ceiling: at least 12,000 feet AGL
Clouds: sky clear below 12,000 feet AGL
Weather: automated observation with no human augmentation;
there may or may not be significant weather present at this time

METAR text: KDVT 180953Z AUTO 06005KT 10SM CLR 16/07 A3004 RMK AO2 SLP157 T01560067
Conditions at: KDVT (PHOENIX/DEER VLY, AZ, US) observed 0953 UTC 18 April 2019
Temperature: 15.6°C (60°F)
Dewpoint: 6.7°C (44°F) [RH = 55%]
Pressure (altimeter): 30.04 inches Hg (1017.4 mb)
[Sea-level pressure: 1015.7 mb]
Winds: from the ENE (60 degrees) at 6 MPH (5 knots; 2.6 m/s)
Visibility: 10 or more miles (16+ km)
Ceiling: at least 12,000 feet AGL
Clouds: sky clear below 12,000 feet AGL
Weather: automated observation with no human augmentation;
there may or may not be significant weather present at this time

METAR text: KDVT 180853Z AUTO 07004KT 10SM CLR 17/07 A3005 RMK AO2 SLP160 T01670072 51006
Conditions at: KDVT (PHOENIX/DEER VLY, AZ, US) observed 0853 UTC 18 April 2019
Temperature: 16.7°C (62°F)
Dewpoint: 7.2°C (45°F) [RH = 53%]
Pressure (altimeter): 30.05 inches Hg (1017.7 mb)
[Sea-level pressure: 1016.0 mb]
Winds: from the ENE (70 degrees) at 5 MPH (4 knots; 2.1 m/s)
Visibility: 10 or more miles (16+ km)
Ceiling: at least 12,000 feet AGL
Clouds: sky clear below 12,000 feet AGL
Weather: automated observation with no human augmentation;
there may or may not be significant weather present at this time

METAR text: KDVT 180753Z AUTO 08004KT 10SM CLR 18/07 A3004 RMK AO2 SLP156 T01780072
Conditions at: KDVT (PHOENIX/DEER VLY, AZ, US) observed 0753 UTC 18 April 2019
Temperature: 17.8°C (64°F)
Dewpoint: 7.2°C (45°F) [RH = 50%]
Pressure (altimeter): 30.04 inches Hg (1017.4 mb)
[Sea-level pressure: 1015.6 mb]
Winds: from the E (80 degrees) at 5 MPH (4 knots; 2.1 m/s)
Visibility: 10 or more miles (16+ km)
Ceiling: at least 12,000 feet AGL
Clouds: sky clear below 12,000 feet AGL
Weather: automated observation with no human augmentation;
there may or may not be significant weather present at this time

METAR text: KDVT 180653Z 09006KT 10SM CLR 18/07 A3004 RMK AO2 SLP158 T01830072 402440111
Conditions at: KDVT (PHOENIX/DEER VLY, AZ, US) observed 0653 UTC 18 April 2019
Temperature: 18.3°C (65°F)
Dewpoint: 7.2°C (45°F) [RH = 48%]
Pressure (altimeter): 30.04 inches Hg (1017.4 mb)
[Sea-level pressure: 1015.8 mb]
Winds: from the E (90 degrees) at 7 MPH (6 knots; 3.1 m/s)
Visibility: 10 or more miles (16+ km)
Ceiling: at least 12,000 feet AGL
Clouds: sky clear below 12,000 feet AGL
Weather: no significant weather observed at this time

METAR text: KDVT 180553Z 10004KT 10SM CLR 19/07 A3003 RMK AO2 SLP153 T01940067 10239 20189 51012
Conditions at: KDVT (PHOENIX/DEER VLY, AZ, US) observed 0553 UTC 18 April 2019
Temperature: 19.4°C (67°F)
Dewpoint: 6.7°C (44°F) [RH = 44%]
Pressure (altimeter): 30.03 inches Hg (1017.0 mb)
[Sea-level pressure: 1015.3 mb]
Winds: from the E (100 degrees) at 5 MPH (4 knots; 2.1 m/s)
Visibility: 10 or more miles (16+ km)
Ceiling: at least 12,000 feet AGL
Clouds: sky clear below 12,000 feet AGL
Weather: no significant weather observed at this time

METAR text: KDVT 180453Z 00000KT 10SM CLR 20/07 A3002 RMK AO2 SLP152 T02000067
Conditions at: KDVT (PHOENIX/DEER VLY, AZ, US) observed 0453 UTC 18 April 2019
Temperature: 20.0°C (68°F)
Dewpoint: 6.7°C (44°F) [RH = 42%]
Pressure (altimeter): 30.02 inches Hg (1016.7 mb)
[Sea-level pressure: 1015.2 mb]
Winds: calm
Visibility: 10 or more miles (16+ km)
Ceiling: at least 12,000 feet AGL
Clouds: sky clear below 12,000 feet AGL
Weather: no significant weather observed at this time

METAR text: KDVT 180353Z 19004KT 10SM CLR 21/07 A3001 RMK AO2 SLP149 T02110067
Conditions at: KDVT (PHOENIX/DEER VLY, AZ, US) observed 0353 UTC 18 April 2019
Temperature: 21.1°C (70°F)
Dewpoint: 6.7°C (44°F) [RH = 39%]
Pressure (altimeter): 30.01 inches Hg (1016.3 mb)
[Sea-level pressure: 1014.9 mb]
Winds: from the S (190 degrees) at 5 MPH (4 knots; 2.1 m/s)
Visibility: 10 or more miles (16+ km)
Ceiling: at least 12,000 feet AGL
Clouds: sky clear below 12,000 feet AGL
Weather: no significant weather observed at this time

METAR text: KDVT 180253Z 22007KT 10SM CLR 22/07 A2999 RMK AO2 SLP143 T02170067 53007
Conditions at: KDVT (PHOENIX/DEER VLY, AZ, US) observed 0253 UTC 18 April 2019
Temperature: 21.7°C (71°F)
Dewpoint: 6.7°C (44°F) [RH = 38%]
Pressure (altimeter): 29.99 inches Hg (1015.7 mb)
[Sea-level pressure: 1014.3 mb]
Winds: from the SW (220 degrees) at 8 MPH (7 knots; 3.6 m/s)
Visibility: 10 or more miles (16+ km)
Ceiling: at least 12,000 feet AGL
Clouds: sky clear below 12,000 feet AGL
Weather: no significant weather observed at this time

METAR text: KDVT 180153Z 20009KT 10SM CLR 23/07 A2997 RMK AO2 SLP136 T02280072
Conditions at: KDVT (PHOENIX/DEER VLY, AZ, US) observed 0153 UTC 18 April 2019
Temperature: 22.8°C (73°F)
Dewpoint: 7.2°C (45°F) [RH = 37%]
Pressure (altimeter): 29.97 inches Hg (1015.0 mb)
[Sea-level pressure: 1013.6 mb]
Winds: from the SSW (200 degrees) at 10 MPH (9 knots; 4.6 m/s)
Visibility: 10 or more miles (16+ km)
Ceiling: at least 12,000 feet AGL
Clouds: sky clear below 12,000 feet AGL
Weather: no significant weather observed at this time

METAR text: KDVT 180053Z 20009KT 10SM CLR 23/07 A2997 RMK AO2 SLP135 T02330072
Conditions at: KDVT (PHOENIX/DEER VLY, AZ, US) observed 0053 UTC 18 April 2019
Temperature: 23.3°C (74°F)
Dewpoint: 7.2°C (45°F) [RH = 36%]
Pressure (altimeter): 29.97 inches Hg (1015.0 mb)
[Sea-level pressure: 1013.5 mb]
Winds: from the SSW (200 degrees) at 10 MPH (9 knots; 4.6 m/s)
Visibility: 10 or more miles (16+ km)
Ceiling: at least 12,000 feet AGL
Clouds: sky clear below 12,000 feet AGL
Weather: no significant weather observed at this time

METAR text: KDVT 172353Z 19009KT 10SM CLR 23/08 A2997 RMK AO2 SLP134 T02330078 10244 20178 56013
Conditions at: KDVT (PHOENIX/DEER VLY, AZ, US) observed 2353 UTC 17 April 2019
Temperature: 23.3°C (74°F)
Dewpoint: 7.8°C (46°F) [RH = 37%]
Pressure (altimeter): 29.97 inches Hg (1015.0 mb)
[Sea-level pressure: 1013.4 mb]
Winds: from the S (190 degrees) at 10 MPH (9 knots; 4.6 m/s)
Visibility: 10 or more miles (16+ km)
Ceiling: at least 12,000 feet AGL
Clouds: sky clear below 12,000 feet AGL
Weather: no significant weather observed at this time

METAR text: KDVT 172253Z 21008KT 10SM FEW060 23/08 A2998 RMK AO2 SLP136 T02330078
Conditions at: KDVT (PHOENIX/DEER VLY, AZ, US) observed 2253 UTC 17 April 2019
Temperature: 23.3°C (74°F)
Dewpoint: 7.8°C (46°F) [RH = 37%]
Pressure (altimeter): 29.98 inches Hg (1015.3 mb)
[Sea-level pressure: 1013.6 mb]
Winds: from the SSW (210 degrees) at 9 MPH (8 knots; 4.1 m/s)
Visibility: 10 or more miles (16+ km)
Ceiling: at least 12,000 feet AGL
Clouds: few clouds at 6000 feet AGL
Weather: no significant weather observed at this time

METAR text: KDVT 172153Z 22008G18KT 10SM FEW055 23/08 A2999 RMK AO2 SLP141 T02330083
Conditions at: KDVT (PHOENIX/DEER VLY, AZ, US) observed 2153 UTC 17 April 2019
Temperature: 23.3°C (74°F)
Dewpoint: 8.3°C (47°F) [RH = 38%]
Pressure (altimeter): 29.99 inches Hg (1015.7 mb)
[Sea-level pressure: 1014.1 mb]
Winds: from the SW (220 degrees) at 9 MPH (8 knots; 4.1 m/s)
gusting to 21 MPH (18 knots; 9.3 m/s)
Visibility: 10 or more miles (16+ km)
Ceiling: at least 12,000 feet AGL
Clouds: few clouds at 5500 feet AGL
Weather: no significant weather observed at this time

METAR text: KDVT 172053Z 24008KT 10SM CLR 22/07 A3001 RMK AO2 SLP148 T02220072 56009
Conditions at: KDVT (PHOENIX/DEER VLY, AZ, US) observed 2053 UTC 17 April 2019
Temperature: 22.2°C (72°F)
Dewpoint: 7.2°C (45°F) [RH = 38%]
Pressure (altimeter): 30.01 inches Hg (1016.3 mb)
[Sea-level pressure: 1014.8 mb]
Winds: from the WSW (240 degrees) at 9 MPH (8 knots; 4.1 m/s)
Visibility: 10 or more miles (16+ km)
Ceiling: at least 12,000 feet AGL
Clouds: sky clear below 12,000 feet AGL
Weather: no significant weather observed at this time

Forecast for: KDVT (PHOENIX/DEER VLY, AZ, US)
Text: KDVT 190520Z 1906/2006 05004KT P6SM FEW250
Forecast period: 0600 to 1700 UTC 19 April 2019
Forecast type: FROM: standard forecast or significant change
Winds: from the NE (50 degrees) at 5 MPH (4 knots; 2.1 m/s)
Visibility: 6 or more miles 10+ km)
Ceiling: at least 12,000 feet AGL
Clouds: few clouds at 25000 feet AGL
Weather: no significant weather forecast for this period
Text: FM191700 16007KT P6SM FEW250
Forecast period: 1700 UTC 19 April 2019 to 0200 UTC 20 April 2019
Forecast type: FROM: standard forecast or significant change
Winds: from the SSE (160 degrees) at 8 MPH (7 knots; 3.6 m/s)
Visibility: 6 or more miles 10+ km)
Ceiling: at least 12,000 feet AGL
Clouds: few clouds at 25000 feet AGL
Weather: no significant weather forecast for this period
Text: FM200200 03004KT P6SM SKC
Forecast period: 0200 to 0600 UTC 20 April 2019
Forecast type: FROM: standard forecast or significant change
Winds: from the NNE (30 degrees) at 5 MPH (4 knots; 2.1 m/s)
Visibility: 6 or more miles 10+ km)
Clouds: clear skies
Weather: no significant weather forecast for this period